• Join FlightAware (Why Join?)
  • Login
  • US Flag 
11:20AM EST


 

Airport Tracker/Info


-or-


 

Live Flight TrackerFlight Track Log ✈ N448ND ✈ 12-May-2014 ✈ KXFL - KFPR

Flight Track Log - Related Links

Times and Time Zones

All times are in EDT time to prevent confusion due to time zone crossing. See the N448ND flight status page for this flight to view local times or setup timezone preferences in your user account.

Time Position Orientation Groundspeed Altitude Reporting Facility
EDT Latitude Longitude Course Direction KTS MPH feet Rate Location/Type
01:52PM 29.4617 -81.1753 108° East 69 79 1,200  Level Jacksonville Center
01:53PM 29.4492 -81.1706 162° South 80 92 1,800 600 Climbing Jacksonville Center
01:54PM 29.4306 -81.1853 215° Southwest 85 98 2,500 480 Climbing Jacksonville Center
01:55PM 29.4119 -81.2047 222° Southwest 88 101 2,800 240 Climbing Jacksonville Center
01:56PM 29.3914 -81.2217 216° Southwest 92 106 3,000 240 Climbing Jacksonville Center
01:57PM 29.3664 -81.2317 199° South 96 110 3,300 360 Climbing Jacksonville Center
01:58PM 29.3433 -81.2344 186° South 80 92 3,800 300 Climbing Jacksonville Center
01:59PM 29.3183 -81.2397 190° South 90 104 4,000 60 Climbing Jacksonville Center
02:00PM 29.2894 -81.2497 197° South 103 119 4,000  Level Jacksonville Center
02:01PM 29.2644 -81.2619 203° Southwest 101 116 4,000  Level Jacksonville Center
02:02PM 29.2333 -81.2833 211° Southwest 105 121 4,000 -60 Level Orlando TRACON
02:03PM 29.2167 -81.3000 221° Southwest 106 122 3,900  Descending Orlando TRACON
02:04PM 29.1833 -81.3167 204° Southwest 81 93 4,000  Climbing Orlando TRACON
02:05PM 29.1667 -81.3167 180° South 107 123 4,000  Level Orlando TRACON
02:06PM 29.1333 -81.3333 204° Southwest 99 114 4,000  Level Orlando TRACON
02:07PM 29.1000 -81.3333 180° South 99 114 4,000  Level Orlando TRACON
02:08PM 29.0667 -81.3333 180° South 106 122 4,000  Level Orlando TRACON
02:09PM 29.0500 -81.3333 180° South 107 123 4,000 -60 Level Orlando TRACON
02:10PM 29.0167 -81.3500 204° Southwest 99 114 3,900  Descending Orlando TRACON
02:12PM 29.0000 -81.3500 180° South 102 117 4,000  Climbing Orlando TRACON
02:13PM 28.9667 -81.3667 204° Southwest 101 116 4,000  Level Orlando TRACON
02:13PM 28.9500 -81.3833 221° Southwest 105 121 4,000  Level Orlando TRACON
02:15PM 28.9167 -81.4000 204° Southwest 106 122 4,000 -60 Level Orlando TRACON
02:15PM 28.8833 -81.4167 204° Southwest 110 127 3,900  Descending Orlando TRACON
02:16PM 28.8667 -81.4333 221° Southwest 107 123 4,000 60 Climbing Orlando TRACON
02:17PM 28.8333 -81.4500 204° Southwest 104 120 4,100  Climbing Orlando TRACON
02:18PM 28.8167 -81.4667 221° Southwest 101 116 4,000 -60 Descending Orlando TRACON
02:19PM 28.7833 -81.4833 204° Southwest 109 125 4,000  Level Orlando TRACON
02:20PM 28.7667 -81.5000 221° Southwest 106 122 4,000  Level Orlando TRACON
02:21PM 28.7333 -81.5167 204° Southwest 104 120 4,000  Level Orlando TRACON
02:22PM 28.7167 -81.5333 221° Southwest 110 127 4,000  Level Orlando TRACON
02:23PM 28.6833 -81.5500 204° Southwest 104 120 4,000 -300 Level Orlando TRACON
02:24PM 28.6667 -81.5667 221° Southwest 104 120 3,400 -540 Descending Orlando TRACON
02:25PM 28.6333 -81.5833 204° Southwest 109 125 3,000 -180 Descending Orlando TRACON
02:26PM 28.6167 -81.6000 221° Southwest 99 114 3,100  Climbing Orlando TRACON
02:27PM 28.5833 -81.6000 180° South 105 121 3,000 -60 Descending Orlando TRACON
02:28PM 28.5667 -81.6167 221° Southwest 102 117 3,000 -180 Level Orlando TRACON
02:29PM 28.5333 -81.6167 180° South 93 107 2,700 -360 Descending Orlando TRACON
02:30PM 28.5000 -81.6167 180° South 99 114 2,300 -360 Descending Orlando TRACON
02:31PM 28.4833 -81.6167 180° South 97 112 2,000 -120 Descending Orlando TRACON
02:32PM 28.4667 -81.6000 139° Southeast 89 102 2,100  Climbing Orlando TRACON
02:34PM 28.4667 -81.5667 90° East 78 90 2,100  Level Orlando TRACON
02:35PM 28.4667 -81.5333 90° East 88 101 2,100  Level Orlando TRACON
02:36PM 28.4833 -81.5167 41° Northeast 88 101 2,100 -60 Level Orlando TRACON
02:37PM 28.4833 -81.4833 90° East 93 107 2,000  Descending Orlando TRACON
02:38PM 28.5000 -81.4667 41° Northeast 91 105 2,100  Climbing Orlando TRACON
02:39PM 28.5000 -81.4333 90° East 71 82 2,000 -300 Descending Orlando TRACON
02:40PM 28.5167 -81.4167 41° Northeast 84 97 1,500 -420 Descending Orlando TRACON
02:41PM 28.5167 -81.3833 90° East 81 93 1,200 -480 Descending Orlando TRACON
02:42PM 28.5333 -81.3667 41° Northeast 87 100 600 -240 Descending Orlando TRACON
02:44PM 28.5500 -81.3167 69° East 73 84 600 240 Level Orlando TRACON
02:45PM 28.5667 -81.3000 41° Northeast 73 84 1,400 420 Climbing Orlando TRACON
02:46PM 28.5833 -81.2833 41° Northeast 103 119 1,600  Climbing Orlando TRACON
02:47PM 28.6000 -81.2667 41° Northeast 81 93 1,500  Descending Orlando TRACON
02:48PM 28.6000 -81.2333 90° East 89 102 1,700 360 Climbing Orlando TRACON
02:49PM 28.6000 -81.2167 90° East 69 79 2,200 600 Climbing Orlando TRACON
02:50PM 28.6000 -81.2000 90° East 68 78 2,900 360 Climbing Orlando TRACON
02:51PM 28.6167 -81.1667 60° Northeast 99 114 3,000 120 Climbing Orlando TRACON
02:52PM 28.6167 -81.1333 90° East 93 107 3,200 420 Climbing Orlando TRACON
02:53PM 28.6000 -81.1167 139° Southeast 82 94 3,900 360 Climbing Orlando TRACON
02:54PM 28.5833 -81.1000 139° Southeast 87 100 4,000  Climbing Orlando TRACON
02:55PM 28.5667 -81.0667 120° Southeast 92 106 4,000  Level Orlando TRACON
02:56PM 28.5500 -81.0500 139° Southeast 98 113 4,000  Level Orlando TRACON
02:57PM 28.5333 -81.0167 120° Southeast 98 113 4,000  Level Orlando TRACON
02:58PM 28.5167 -81.0000 139° Southeast 88 101 4,000  Level Orlando TRACON
02:59PM 28.5167 -80.9833 90° East 87 100 4,000  Level Orlando TRACON
03:00PM 28.5000 -80.9500 120° Southeast 91 105 4,000  Level Orlando TRACON
03:01PM 28.4833 -80.9333 139° Southeast 102 117 4,000  Level Orlando TRACON
03:02PM 28.4500 -80.9333 180° South 93 107 4,000  Level Orlando TRACON
03:03PM 28.4333 -80.9333 180° South 95 109 4,000  Level Orlando TRACON
03:04PM 28.4000 -80.9167 156° South 98 113 4,000  Level Orlando TRACON
03:05PM 28.3667 -80.9167 180° South 98 113 4,100  Climbing Orlando TRACON
03:06PM 28.3500 -80.9000 139° Southeast 95 109 4,000 -60 Descending Orlando TRACON
03:07PM 28.3167 -80.9000 180° South 100 115 4,000  Level Orlando TRACON
03:08PM 28.3000 -80.9000 180° South 99 114 4,000  Level Orlando TRACON
03:09PM 28.2667 -80.8833 156° South 98 113 4,000  Level Orlando TRACON
03:10PM 28.2378 -80.8825 179° South 97 112 4,000  Level Miami Center
03:11PM 28.2103 -80.8772 170° South 101 116 4,000  Level Miami Center
03:12PM 28.1800 -80.8700 168° South 95 109 4,000  Level Miami Center
03:13PM 28.1553 -80.8658 172° South 93 107 4,100  Climbing Miami Center
03:14PM 28.1294 -80.8622 173° South 93 107 4,000 -60 Descending Miami Center
03:15PM 28.1000 -80.8564 170° South 96 110 4,000  Level Miami Center
03:16PM 28.0731 -80.8533 174° South 95 109 4,000  Level Miami Center
03:17PM 28.0461 -80.8503 174° South 95 109 4,000  Level Miami Center
03:18PM 28.0208 -80.8450 170° South 95 109 4,100  Climbing Miami Center
03:19PM 27.9922 -80.8383 168° South 100 115 4,100  Level Miami Center
03:20PM 27.9647 -80.8314 167° South 100 115 4,100  Level Miami Center
03:21PM 27.9378 -80.8250 168° South 98 113 4,100 -60 Level Miami Center
03:22PM 27.9117 -80.8172 165° South 96 110 4,000  Descending Miami Center
03:23PM 27.8956 -80.7942 128° Southeast 91 105 4,100  Climbing Miami Center
03:24PM 27.8803 -80.7736 130° Southeast 90 104 4,100 -60 Level Miami Center
03:25PM 27.8631 -80.7514 131° Southeast 90 104 4,000 -60 Descending Miami Center
03:26PM 27.8458 -80.7286 131° Southeast 90 104 4,000  Level Miami Center
03:28PM 27.8300 -80.7069 130° Southeast 90 104 4,000  Level Miami Center
03:29PM 27.8150 -80.6847 127° Southeast 87 100 4,000  Level Miami Center
03:30PM 27.8000 -80.6639 129° Southeast 87 100 4,000  Level Miami Center
03:31PM 27.7858 -80.6397 124° Southeast 88 101 4,000  Level Miami Center
03:32PM 27.7711 -80.6156 125° Southeast 88 101 4,100  Climbing Miami Center
03:33PM 27.7525 -80.5942 135° Southeast 88 101 4,000  Descending Miami Center
03:34PM 27.7353 -80.5728 132° Southeast 88 101 4,100  Climbing Miami Center
03:35PM 27.7206 -80.5486 125° Southeast 89 102 4,100 -120 Level Miami Center
03:36PM 27.7058 -80.5278 129° Southeast 88 101 3,900 -540 Descending Miami Center
03:37PM 27.6886 -80.5039 129° Southeast 90 104 3,100 -420 Descending Miami Center
03:38PM 27.6711 -80.4819 132° Southeast 90 104 3,100  Level Miami Center
03:39PM 27.6456 -80.4697 157° South 97 112 3,100 -180 Level Miami Center
03:40PM 27.6217 -80.4544 150° Southeast 97 112 2,800 -240 Descending Miami Center
03:41PM 27.5989 -80.4394 150° Southeast 94 108 2,700  Descending Miami Center
03:42PM 27.5786 -80.4267 151° Southeast 88 101 2,800 -240 Climbing Miami Center
03:43PM 27.5583 -80.4158 155° Southeast 80 92 2,300 -720 Descending Miami Center
03:44PM 27.5389 -80.4033 150° Southeast 78 90 1,400 -780 Descending Miami Center
03:45PM 27.5183 -80.3906 151° Southeast 79 91 700 -540 Descending Miami Center
03:46PM 27.5006 -80.3775 147° Southeast 76 87 300 -420 Descending Miami Center